Kezdőlap
METAR-TAF:

METAR-TAF

Repülőterek :

Yap, Mikronézia

földrajzi szélesség: 09-29N, földrajzi hosszúság: 138-05E, magasság: 28 m

Jelenlegi meteorológiai megfigyelések

A jelentés 48 perccel ezelõtt készült, 12:50 UTC
Észak-északkeleti szél 7 kt
Hőmérséklet 28°C
Páratartalom 89%
Légköri nyomás 1008 hPa
Látótávolság: 14.5 km
Szórványos felhőzet 1600 lábon, Tornyos gomolyfelhő.
Szakadozott felhőzet 13000 lábon
Borult 30000 lábon
enyhe záporok

METAR: PTYA 161250Z 02007KT 9SM -SHRA SCT016TCU BKN130 OVC300 28/26 A2978 RMK SHRAB40 TCU S-W SLP086 T02760256

Idő: 23:38 (13:38 UTC)

Előrejelzés

A jelentés 2 órával és 13 perccel ezelõtt készült, 11:25 UTC
Az előrejelzés 16-én 12 óra UTC és 17-én 12 óra UTC között érvényes
Észak-északkeleti szél 11 kt
Látótávolság: 10 km
Kevés felhő 1600 lábon
Szórványos felhőzet 5000 lábon
Szakadozott felhőzet 14000 lábon
Záporok a közelben

TAF: PTYA 161125Z 1612/1712 03011KT P6SM VCSH FEW016 SCT050 BKN140

Meteorológiai megfigyelések és előrejelzések több, mint 4000 repülőtéren (METAR és TAF jelentéseket).

A térképen piros és sárga pontok jelzik az elérhető meteorológiai állomásokat.

Mozgassa az egeret a pont fölött, hogy megjelenjen az állomás neve.

Azután kattintson az időjárási megfigyelések és előrejelzések megtekintéséhez.

A térkép megváltoztatása: kattintson a fekete keresztel jelölt zöld gombra ráközelítéshez, a vonallal jelölt zöld gombra távolításhoz, vagy a zöld nyilakra a szomszédos térképek eléréséhez.


METAR-TAF: